Bighorn, Montana
Current Conditions -  °F | °C
As of 11:53 AM on Saturday 25 Oct 2014 (Local Time) from KBIL Reporting Station
Few Clouds Few Clouds  
Wind Chill: 54°   Ceiling: Unl
Heat Index: 54°   Visibility: 10mi
Dew Point: 35°   Wind: 5mph
Humidity: 49%   Direction: 220°SW
Pressure: 29.97"   Gusts: NA
Location:  46.16°N, 107.45°W
Report Text: KBIL 251753Z 22004KT 10SM FEW200 12/02 A2997 RMK AO2 SLP147 T01220017 10122 20011 58022
Loading
Personal Weather Stations






























Interactive Weather Map
Tropical Storm Tracking
New forecast layout! Learn more

10-Day Weather Forecast

Advertisements
Track Severe Weather on mobile